Terminal Aerodrome Forecast
Issued by NWS Greer, SC

Home | Current Version | Previous Version | Text Only | Print | Product List | Glossary On
Versions: 1 2 3 4 5 6 7 8 9 10 11 12 13 14 15 16 17 18 19 20 21 22 23 24 25 26 27 28 29 30 31 32 33 34
000
FTUS42 KGSP 261720
TAFAVL
TAF
KAVL 261720Z 2618/2718 34005KT P6SM SCT035
     FM262000 19004KT P6SM SCT035
     FM270900 VRB03KT 1SM BR SCT003
     FM271300 12004KT P6SM SCT030=

USA.gov is the U.S. government's official web portal to all federal, state and local government web resources and services.